Osceola, IA

3:32 AM CDT on September 20, 2014 (GMT -0500)
Osceola Municipal | Change Station
CLOSE
Current Station
Airport
Location: Osceola Municipal,
Elevation: 1109 ft
Nearby Weather Stations

Elev 1109 ft 41.05 °N, 93.69 °W | Updated 17 minutes ago

Clear
Clear
68 °F
Feels Like 68 °F
N
14
Wind Variable Wind from South
Gusts 18 mph

Today
High -- | Low -- °F
--% Chance of Precip.
Yesterday
High -- | Low -- °F
Precip. -- in
7:00 AM 7:15 PM
Waning Crescent, 13% visible
Pressure 29.87 in
Visibility 7.0 miles
Clouds Clear
Dew Point 66 °F
Humidity 91%
Rainfall 0.00 in
Snow Depth Not available.
UV 0 out of 12
Pollen 5.60 out of 12
Air Quality Not available.
Flu Activity Not available.
METAR KI75 200815Z AUTO 19012G16KT 7SM CLR 20/19 A2987 RMK AO2 T02030188

More Conditions Fewer Conditions

Pressure 29.87 in
Visibility 7.0 miles
Clouds Clear
Dew Point 66 °F
Humidity 91%
Rainfall 0.00 in
Snow Depth Not available.
UV 0 out of 12
Pollen 5.60 out of 12
Air Quality Not available.
Flu Activity Not available.
METAR KI75 200815Z AUTO 19012G16KT 7SM CLR 20/19 A2987 RMK AO2 T02030188

More Conditions Fewer Conditions

10-Day Weather Forecast

Almanac

Astronomy

Sep. 20, 2014 Rise Set
Actual Time 7:00 AM CDT 7:15 PM CDT
Civil Twilight 6:33 AM CDT 7:43 PM CDT
Nautical Twilight 6:00 AM CDT 8:15 PM CDT
Astronomical Twilight 5:27 AM CDT 8:48 PM CDT
Moon 3:39 AM CDT 5:20 PM CDT
Length of Visible Light 13h 09m
Length of Day
12h 15m
Tomorrow will be 2m 43s shorter.
Waning Crescent, 13% of the Moon is Illuminated
Today
Waning Crescent
Sep 24
New
Oct 1
First Quarter
Oct 8
Full
Oct 15
Last Quarter

Today's Extremes

State Highs State Lows

Community

WunderPhotos

Upload Photos

1,754,793 photos uploaded!

WunderBlogs® & News

Nearby

Snow Depth

Station Depth Elevation
No new snow has been reported.

Earthquake Activity

City Distance Mag. Time & Date
No recent earthquake activity has been reported nearby.
Minimum magnitude displayed is 2.5.

Coastal Water Temperatures

Place Temperature
No Stations Reporting

Nearby Weather Stations